sensor_id;sensor_type;location;lat;lon;timestamp;temperature;humidity
51793;DHT22;37850;53.178;6.376;2023-03-01T00:02:21;0.00;99.90
51793;DHT22;37850;53.178;6.376;2023-03-01T00:04:47;-0.10;99.90
51793;DHT22;37850;53.178;6.376;2023-03-01T00:07:13;-0.10;99.90
51793;DHT22;37850;53.178;6.376;2023-03-01T00:09:39;-0.10;99.90
51793;DHT22;37850;53.178;6.376;2023-03-01T00:12:05;-0.10;99.90
51793;DHT22;37850;53.178;6.376;2023-03-01T00:14:32;-0.10;99.90
51793;DHT22;37850;53.178;6.376;2023-03-01T00:16:57;-0.10;99.90
51793;DHT22;37850;53.178;6.376;2023-03-01T00:19:23;-0.20;99.90
51793;DHT22;37850;53.178;6.376;2023-03-01T00:21:49;-0.20;99.90
51793;DHT22;37850;53.178;6.376;2023-03-01T00:24:15;0.10;99.90
51793;DHT22;37850;53.178;6.376;2023-03-01T00:26:41;-0.20;99.90
51793;DHT22;37850;53.178;6.376;2023-03-01T00:29:07;-0.30;99.90
51793;DHT22;37850;53.178;6.376;2023-03-01T00:31:33;-0.30;99.90
51793;DHT22;37850;53.178;6.376;2023-03-01T00:34:02;-1.10;99.90
51793;DHT22;37850;53.178;6.376;2023-03-01T00:36:30;-0.30;99.90
51793;DHT22;37850;53.178;6.376;2023-03-01T00:38:57;0.70;99.90
51793;DHT22;37850;53.178;6.376;2023-03-01T00:41:24;-0.40;99.90
51793;DHT22;37850;53.178;6.376;2023-03-01T00:43:52;-0.40;99.90
51793;DHT22;37850;53.178;6.376;2023-03-01T00:46:21;-0.40;99.90
51793;DHT22;37850;53.178;6.376;2023-03-01T00:48:48;-0.40;99.90
51793;DHT22;37850;53.178;6.376;2023-03-01T00:51:21;-0.40;99.90
51793;DHT22;37850;53.178;6.376;2023-03-01T00:53:50;-0.50;99.90
51793;DHT22;37850;53.178;6.376;2023-03-01T00:56:16;-0.50;99.90
51793;DHT22;37850;53.178;6.376;2023-03-01T00:58:42;-0.50;99.90
51793;DHT22;37850;53.178;6.376;2023-03-01T01:01:16;-0.50;99.90
51793;DHT22;37850;53.178;6.376;2023-03-01T01:03:50;-0.50;99.90
51793;DHT22;37850;53.178;6.376;2023-03-01T01:06:17;-0.60;99.90
51793;DHT22;37850;53.178;6.376;2023-03-01T01:08:43;-0.60;99.90
51793;DHT22;37850;53.178;6.376;2023-03-01T01:11:10;-0.40;99.90
51793;DHT22;37850;53.178;6.376;2023-03-01T01:13:37;0.40;99.90
51793;DHT22;37850;53.178;6.376;2023-03-01T01:16:03;-0.60;99.90
51793;DHT22;37850;53.178;6.376;2023-03-01T01:18:29;-0.60;99.90
51793;DHT22;37850;53.178;6.376;2023-03-01T01:20:55;-0.70;99.90
51793;DHT22;37850;53.178;6.376;2023-03-01T01:23:21;0.10;99.90
51793;DHT22;37850;53.178;6.376;2023-03-01T01:25:47;-0.70;99.90
51793;DHT22;37850;53.178;6.376;2023-03-01T01:28:12;-0.70;99.90
51793;DHT22;37850;53.178;6.376;2023-03-01T01:30:38;-0.60;99.90
51793;DHT22;37850;53.178;6.376;2023-03-01T01:33:04;-0.70;99.90
51793;DHT22;37850;53.178;6.376;2023-03-01T01:35:30;-0.70;99.90
51793;DHT22;37850;53.178;6.376;2023-03-01T01:37:56;-0.30;99.90
51793;DHT22;37850;53.178;6.376;2023-03-01T01:40:22;-0.70;99.90
51793;DHT22;37850;53.178;6.376;2023-03-01T01:42:47;-0.20;99.90
51793;DHT22;37850;53.178;6.376;2023-03-01T01:45:30;-0.80;99.90
51793;DHT22;37850;53.178;6.376;2023-03-01T01:48:02;-0.90;99.90
51793;DHT22;37850;53.178;6.376;2023-03-01T01:50:29;-0.90;99.90
51793;DHT22;37850;53.178;6.376;2023-03-01T01:53:07;-1.00;99.90
51793;DHT22;37850;53.178;6.376;2023-03-01T01:55:37;-1.00;99.90
51793;DHT22;37850;53.178;6.376;2023-03-01T01:58:06;-1.00;99.90
51793;DHT22;37850;53.178;6.376;2023-03-01T02:00:34;-1.10;99.90
51793;DHT22;37850;53.178;6.376;2023-03-01T02:03:09;-1.10;99.90
51793;DHT22;37850;53.178;6.376;2023-03-01T02:05:55;-1.10;99.90
51793;DHT22;37850;53.178;6.376;2023-03-01T02:08:25;-1.20;99.90
51793;DHT22;37850;53.178;6.376;2023-03-01T02:10:52;-0.90;99.90
51793;DHT22;37850;53.178;6.376;2023-03-01T02:13:18;-1.20;99.90
51793;DHT22;37850;53.178;6.376;2023-03-01T02:15:44;-1.20;99.90
51793;DHT22;37850;53.178;6.376;2023-03-01T02:18:12;-1.30;99.90
51793;DHT22;37850;53.178;6.376;2023-03-01T02:23:20;-1.30;99.90
51793;DHT22;37850;53.178;6.376;2023-03-01T02:25:57;-1.40;99.90
51793;DHT22;37850;53.178;6.376;2023-03-01T02:28:48;-0.70;99.90
51793;DHT22;37850;53.178;6.376;2023-03-01T02:31:17;-0.20;99.90
51793;DHT22;37850;53.178;6.376;2023-03-01T02:34:18;-1.30;99.90
51793;DHT22;37850;53.178;6.376;2023-03-01T02:36:48;-1.40;99.90
51793;DHT22;37850;53.178;6.376;2023-03-01T02:39:18;-1.40;99.90
51793;DHT22;37850;53.178;6.376;2023-03-01T02:41:49;-1.30;99.90
51793;DHT22;37850;53.178;6.376;2023-03-01T02:44:15;-1.40;99.90
51793;DHT22;37850;53.178;6.376;2023-03-01T02:46:47;-1.40;99.90
51793;DHT22;37850;53.178;6.376;2023-03-01T02:49:36;-1.40;99.90
51793;DHT22;37850;53.178;6.376;2023-03-01T02:54:51;-1.50;99.90
51793;DHT22;37850;53.178;6.376;2023-03-01T02:57:18;-1.50;99.90
51793;DHT22;37850;53.178;6.376;2023-03-01T02:59:45;-1.50;99.90
51793;DHT22;37850;53.178;6.376;2023-03-01T03:02:27;-1.60;99.90
51793;DHT22;37850;53.178;6.376;2023-03-01T03:05:13;-1.50;99.90
51793;DHT22;37850;53.178;6.376;2023-03-01T03:07:41;-1.50;99.90
51793;DHT22;37850;53.178;6.376;2023-03-01T03:10:11;-1.30;99.90
51793;DHT22;37850;53.178;6.376;2023-03-01T03:12:38;-1.60;99.90
51793;DHT22;37850;53.178;6.376;2023-03-01T03:15:05;-1.60;99.90
51793;DHT22;37850;53.178;6.376;2023-03-01T03:17:38;-1.50;99.90
51793;DHT22;37850;53.178;6.376;2023-03-01T03:20:05;-1.60;99.90
51793;DHT22;37850;53.178;6.376;2023-03-01T03:22:36;-1.60;99.90
51793;DHT22;37850;53.178;6.376;2023-03-01T03:25:03;-1.60;99.90
51793;DHT22;37850;53.178;6.376;2023-03-01T03:27:28;-1.60;99.90
51793;DHT22;37850;53.178;6.376;2023-03-01T03:29:54;-1.60;99.90
51793;DHT22;37850;53.178;6.376;2023-03-01T03:32:20;-1.60;99.90
51793;DHT22;37850;53.178;6.376;2023-03-01T03:34:46;-1.60;99.90
51793;DHT22;37850;53.178;6.376;2023-03-01T03:37:11;-1.10;99.90
51793;DHT22;37850;53.178;6.376;2023-03-01T03:39:57;-1.70;99.90
51793;DHT22;37850;53.178;6.376;2023-03-01T03:42:24;-1.00;99.90
51793;DHT22;37850;53.178;6.376;2023-03-01T03:44:49;-1.70;99.90
51793;DHT22;37850;53.178;6.376;2023-03-01T03:47:15;-1.80;99.90
51793;DHT22;37850;53.178;6.376;2023-03-01T03:49:41;-1.70;99.90
51793;DHT22;37850;53.178;6.376;2023-03-01T03:52:06;-1.70;99.90
51793;DHT22;37850;53.178;6.376;2023-03-01T03:54:40;-1.80;99.90
51793;DHT22;37850;53.178;6.376;2023-03-01T03:57:06;-1.80;99.90
51793;DHT22;37850;53.178;6.376;2023-03-01T03:59:32;-1.80;99.90
51793;DHT22;37850;53.178;6.376;2023-03-01T04:01:58;-1.80;99.90
51793;DHT22;37850;53.178;6.376;2023-03-01T04:04:23;-1.90;99.90
51793;DHT22;37850;53.178;6.376;2023-03-01T04:06:49;-1.90;99.90
51793;DHT22;37850;53.178;6.376;2023-03-01T04:09:15;-0.50;99.90
51793;DHT22;37850;53.178;6.376;2023-03-01T04:11:40;-2.00;99.90
51793;DHT22;37850;53.178;6.376;2023-03-01T04:14:06;-2.10;99.90
51793;DHT22;37850;53.178;6.376;2023-03-01T04:16:32;-2.20;99.90
51793;DHT22;37850;53.178;6.376;2023-03-01T04:18:58;-2.20;99.90
51793;DHT22;37850;53.178;6.376;2023-03-01T04:21:25;-2.30;99.90
51793;DHT22;37850;53.178;6.376;2023-03-01T04:23:51;-2.20;99.90
51793;DHT22;37850;53.178;6.376;2023-03-01T04:26:19;-1.90;99.90
51793;DHT22;37850;53.178;6.376;2023-03-01T04:28:45;-2.40;99.90
51793;DHT22;37850;53.178;6.376;2023-03-01T04:31:16;-2.50;99.90
51793;DHT22;37850;53.178;6.376;2023-03-01T04:33:46;-2.50;99.90
51793;DHT22;37850;53.178;6.376;2023-03-01T04:36:14;-1.60;99.90
51793;DHT22;37850;53.178;6.376;2023-03-01T04:38:41;-2.60;99.90
51793;DHT22;37850;53.178;6.376;2023-03-01T04:41:09;-2.60;99.90
51793;DHT22;37850;53.178;6.376;2023-03-01T04:43:35;-2.60;99.90
51793;DHT22;37850;53.178;6.376;2023-03-01T04:46:07;-2.70;99.90
51793;DHT22;37850;53.178;6.376;2023-03-01T04:48:35;-2.70;99.90
51793;DHT22;37850;53.178;6.376;2023-03-01T04:51:05;-2.80;99.90
51793;DHT22;37850;53.178;6.376;2023-03-01T04:53:34;-2.90;99.90
51793;DHT22;37850;53.178;6.376;2023-03-01T04:56:05;-2.90;99.90
51793;DHT22;37850;53.178;6.376;2023-03-01T04:58:31;-3.00;99.90
51793;DHT22;37850;53.178;6.376;2023-03-01T05:00:57;-3.00;99.90
51793;DHT22;37850;53.178;6.376;2023-03-01T05:03:23;-3.00;99.90
51793;DHT22;37850;53.178;6.376;2023-03-01T05:05:51;-2.30;99.90
51793;DHT22;37850;53.178;6.376;2023-03-01T05:08:18;-3.00;99.90
51793;DHT22;37850;53.178;6.376;2023-03-01T05:10:51;-3.00;99.90
51793;DHT22;37850;53.178;6.376;2023-03-01T05:13:18;-3.00;99.90
51793;DHT22;37850;53.178;6.376;2023-03-01T05:15:56;-3.00;99.90
51793;DHT22;37850;53.178;6.376;2023-03-01T05:18:25;-3.00;99.90
51793;DHT22;37850;53.178;6.376;2023-03-01T05:20:52;-3.00;99.90
51793;DHT22;37850;53.178;6.376;2023-03-01T05:23:22;-2.60;99.90
51793;DHT22;37850;53.178;6.376;2023-03-01T05:25:48;-1.70;99.90
51793;DHT22;37850;53.178;6.376;2023-03-01T05:28:15;-3.00;99.90
51793;DHT22;37850;53.178;6.376;2023-03-01T05:30:40;-3.00;99.90
51793;DHT22;37850;53.178;6.376;2023-03-01T05:33:07;-3.00;99.90
51793;DHT22;37850;53.178;6.376;2023-03-01T05:35:45;-3.00;99.90
51793;DHT22;37850;53.178;6.376;2023-03-01T05:38:12;-3.00;99.90
51793;DHT22;37850;53.178;6.376;2023-03-01T05:40:40;-2.70;99.90
51793;DHT22;37850;53.178;6.376;2023-03-01T05:43:06;-3.00;99.90
51793;DHT22;37850;53.178;6.376;2023-03-01T05:45:32;-3.00;99.90
51793;DHT22;37850;53.178;6.376;2023-03-01T05:47:58;-3.00;99.90
51793;DHT22;37850;53.178;6.376;2023-03-01T05:50:26;-2.50;99.90
51793;DHT22;37850;53.178;6.376;2023-03-01T05:53:00;-3.00;99.90
51793;DHT22;37850;53.178;6.376;2023-03-01T05:55:28;-3.00;99.90
51793;DHT22;37850;53.178;6.376;2023-03-01T05:57:54;-3.00;99.90
51793;DHT22;37850;53.178;6.376;2023-03-01T06:00:21;-3.00;99.90
51793;DHT22;37850;53.178;6.376;2023-03-01T06:02:48;-3.00;99.90
51793;DHT22;37850;53.178;6.376;2023-03-01T06:05:14;-3.00;99.90
51793;DHT22;37850;53.178;6.376;2023-03-01T06:07:40;-3.00;99.90
51793;DHT22;37850;53.178;6.376;2023-03-01T06:10:07;-3.00;99.90
51793;DHT22;37850;53.178;6.376;2023-03-01T06:12:34;-3.00;99.90
51793;DHT22;37850;53.178;6.376;2023-03-01T06:15:00;-3.00;99.90
51793;DHT22;37850;53.178;6.376;2023-03-01T06:17:30;-3.00;99.90
51793;DHT22;37850;53.178;6.376;2023-03-01T06:19:56;-3.00;99.90
51793;DHT22;37850;53.178;6.376;2023-03-01T06:22:21;-3.00;99.90
51793;DHT22;37850;53.178;6.376;2023-03-01T06:24:47;-3.00;99.90
51793;DHT22;37850;53.178;6.376;2023-03-01T06:27:13;-3.10;99.90
51793;DHT22;37850;53.178;6.376;2023-03-01T06:29:42;-3.00;99.90
51793;DHT22;37850;53.178;6.376;2023-03-01T06:32:08;-3.10;99.90
51793;DHT22;37850;53.178;6.376;2023-03-01T06:34:34;-2.40;99.90
51793;DHT22;37850;53.178;6.376;2023-03-01T06:37:00;-3.10;99.90
51793;DHT22;37850;53.178;6.376;2023-03-01T06:39:31;-3.10;99.90
51793;DHT22;37850;53.178;6.376;2023-03-01T06:41:57;-3.10;99.90
51793;DHT22;37850;53.178;6.376;2023-03-01T06:44:23;-3.10;99.90
51793;DHT22;37850;53.178;6.376;2023-03-01T06:46:49;-3.10;99.90
51793;DHT22;37850;53.178;6.376;2023-03-01T06:49:14;-3.10;99.90
51793;DHT22;37850;53.178;6.376;2023-03-01T06:51:41;-3.10;99.90
51793;DHT22;37850;53.178;6.376;2023-03-01T06:54:07;-2.50;99.90
51793;DHT22;37850;53.178;6.376;2023-03-01T06:56:33;-3.10;99.90
51793;DHT22;37850;53.178;6.376;2023-03-01T06:58:59;-3.10;99.90
51793;DHT22;37850;53.178;6.376;2023-03-01T07:01:25;-2.40;99.90
51793;DHT22;37850;53.178;6.376;2023-03-01T07:03:51;-3.10;99.90
51793;DHT22;37850;53.178;6.376;2023-03-01T07:06:16;-2.50;99.90
51793;DHT22;37850;53.178;6.376;2023-03-01T07:08:43;-3.00;99.90
51793;DHT22;37850;53.178;6.376;2023-03-01T07:11:08;-2.70;99.90
51793;DHT22;37850;53.178;6.376;2023-03-01T07:13:34;-3.00;99.90
51793;DHT22;37850;53.178;6.376;2023-03-01T07:16:00;-3.00;99.90
51793;DHT22;37850;53.178;6.376;2023-03-01T07:18:26;-2.90;99.90
51793;DHT22;37850;53.178;6.376;2023-03-01T07:20:52;-2.90;99.90
51793;DHT22;37850;53.178;6.376;2023-03-01T07:23:18;-2.80;99.90
51793;DHT22;37850;53.178;6.376;2023-03-01T07:25:44;-2.80;99.90
51793;DHT22;37850;53.178;6.376;2023-03-01T07:28:09;-2.80;99.90
51793;DHT22;37850;53.178;6.376;2023-03-01T07:30:35;-2.70;99.90
51793;DHT22;37850;53.178;6.376;2023-03-01T07:33:01;-2.60;99.90
51793;DHT22;37850;53.178;6.376;2023-03-01T07:35:27;-2.50;99.90
51793;DHT22;37850;53.178;6.376;2023-03-01T07:37:53;-2.10;99.90
51793;DHT22;37850;53.178;6.376;2023-03-01T07:40:19;-2.30;99.90
51793;DHT22;37850;53.178;6.376;2023-03-01T07:42:45;-2.20;99.90
51793;DHT22;37850;53.178;6.376;2023-03-01T07:45:11;-1.70;99.90
51793;DHT22;37850;53.178;6.376;2023-03-01T07:47:38;-2.00;99.90
51793;DHT22;37850;53.178;6.376;2023-03-01T07:50:05;-1.90;99.90
51793;DHT22;37850;53.178;6.376;2023-03-01T07:52:31;-1.80;99.90
51793;DHT22;37850;53.178;6.376;2023-03-01T07:54:56;-1.70;99.90
51793;DHT22;37850;53.178;6.376;2023-03-01T07:57:23;-1.60;99.90
51793;DHT22;37850;53.178;6.376;2023-03-01T07:59:48;-1.50;99.90
51793;DHT22;37850;53.178;6.376;2023-03-01T08:02:14;-1.40;99.90
51793;DHT22;37850;53.178;6.376;2023-03-01T08:04:41;-0.40;99.90
51793;DHT22;37850;53.178;6.376;2023-03-01T08:07:07;-1.30;99.90
51793;DHT22;37850;53.178;6.376;2023-03-01T08:09:36;-1.20;99.90
51793;DHT22;37850;53.178;6.376;2023-03-01T08:12:04;-1.10;99.90
51793;DHT22;37850;53.178;6.376;2023-03-01T08:14:31;-1.00;99.90
51793;DHT22;37850;53.178;6.376;2023-03-01T08:16:58;-0.90;99.90
51793;DHT22;37850;53.178;6.376;2023-03-01T08:19:23;-0.80;99.90
51793;DHT22;37850;53.178;6.376;2023-03-01T08:21:49;-0.70;99.90
51793;DHT22;37850;53.178;6.376;2023-03-01T08:24:15;-0.50;99.90
51793;DHT22;37850;53.178;6.376;2023-03-01T08:26:41;-0.50;99.90
51793;DHT22;37850;53.178;6.376;2023-03-01T08:29:07;-0.40;99.90
51793;DHT22;37850;53.178;6.376;2023-03-01T08:31:36;-0.30;99.90
51793;DHT22;37850;53.178;6.376;2023-03-01T08:34:05;-0.20;99.90
51793;DHT22;37850;53.178;6.376;2023-03-01T08:36:36;0.00;99.90
51793;DHT22;37850;53.178;6.376;2023-03-01T08:39:02;0.20;99.90
51793;DHT22;37850;53.178;6.376;2023-03-01T08:41:28;0.30;99.90
51793;DHT22;37850;53.178;6.376;2023-03-01T08:43:54;0.30;99.90
51793;DHT22;37850;53.178;6.376;2023-03-01T08:46:28;0.40;99.90
51793;DHT22;37850;53.178;6.376;2023-03-01T08:48:54;0.50;99.90
51793;DHT22;37850;53.178;6.376;2023-03-01T08:51:20;0.70;99.90
51793;DHT22;37850;53.178;6.376;2023-03-01T08:53:46;0.90;99.90
51793;DHT22;37850;53.178;6.376;2023-03-01T08:56:12;1.00;99.90
51793;DHT22;37850;53.178;6.376;2023-03-01T08:58:38;1.50;99.90
51793;DHT22;37850;53.178;6.376;2023-03-01T09:01:11;1.40;99.90
51793;DHT22;37850;53.178;6.376;2023-03-01T09:03:37;1.50;99.90
51793;DHT22;37850;53.178;6.376;2023-03-01T09:06:04;1.60;99.90
51793;DHT22;37850;53.178;6.376;2023-03-01T09:08:31;1.70;99.90
51793;DHT22;37850;53.178;6.376;2023-03-01T09:11:02;1.80;99.90
51793;DHT22;37850;53.178;6.376;2023-03-01T09:13:28;2.00;99.90
51793;DHT22;37850;53.178;6.376;2023-03-01T09:15:57;2.00;99.90
51793;DHT22;37850;53.178;6.376;2023-03-01T09:18:23;2.10;99.90
51793;DHT22;37850;53.178;6.376;2023-03-01T09:20:49;2.60;99.90
51793;DHT22;37850;53.178;6.376;2023-03-01T09:23:14;2.30;99.90
51793;DHT22;37850;53.178;6.376;2023-03-01T09:25:40;2.40;99.90
51793;DHT22;37850;53.178;6.376;2023-03-01T09:28:06;2.50;99.90
51793;DHT22;37850;53.178;6.376;2023-03-01T09:30:32;2.50;99.90
51793;DHT22;37850;53.178;6.376;2023-03-01T09:32:58;3.40;99.90
51793;DHT22;37850;53.178;6.376;2023-03-01T09:35:24;2.70;99.90
51793;DHT22;37850;53.178;6.376;2023-03-01T09:37:50;2.80;99.90
51793;DHT22;37850;53.178;6.376;2023-03-01T09:40:20;2.90;99.90
51793;DHT22;37850;53.178;6.376;2023-03-01T09:43:07;3.60;99.90
51793;DHT22;37850;53.178;6.376;2023-03-01T09:45:38;3.00;99.90
51793;DHT22;37850;53.178;6.376;2023-03-01T09:48:07;3.10;99.90
51793;DHT22;37850;53.178;6.376;2023-03-01T09:50:39;3.40;99.90
51793;DHT22;37850;53.178;6.376;2023-03-01T09:53:13;3.40;99.90
51793;DHT22;37850;53.178;6.376;2023-03-01T09:55:59;3.30;99.90
51793;DHT22;37850;53.178;6.376;2023-03-01T09:58:37;3.40;99.90
51793;DHT22;37850;53.178;6.376;2023-03-01T10:01:25;3.50;99.90
51793;DHT22;37850;53.178;6.376;2023-03-01T10:06:35;3.60;99.90
51793;DHT22;37850;53.178;6.376;2023-03-01T10:09:12;3.60;99.90
51793;DHT22;37850;53.178;6.376;2023-03-01T10:11:46;3.70;99.90
51793;DHT22;37850;53.178;6.376;2023-03-01T10:19:39;3.90;99.90
51793;DHT22;37850;53.178;6.376;2023-03-01T10:22:29;4.00;99.90
51793;DHT22;37850;53.178;6.376;2023-03-01T10:24:59;4.10;99.90
51793;DHT22;37850;53.178;6.376;2023-03-01T10:27:49;4.10;99.90
51793;DHT22;37850;53.178;6.376;2023-03-01T10:30:22;4.20;99.90
51793;DHT22;37850;53.178;6.376;2023-03-01T10:32:55;4.30;99.90
51793;DHT22;37850;53.178;6.376;2023-03-01T10:35:27;4.40;99.90
51793;DHT22;37850;53.178;6.376;2023-03-01T10:38:05;4.40;99.90
51793;DHT22;37850;53.178;6.376;2023-03-01T10:40:33;4.50;99.90
51793;DHT22;37850;53.178;6.376;2023-03-01T10:43:04;4.90;99.90
51793;DHT22;37850;53.178;6.376;2023-03-01T10:45:36;4.60;99.90
51793;DHT22;37850;53.178;6.376;2023-03-01T10:48:13;4.70;99.90
51793;DHT22;37850;53.178;6.376;2023-03-01T10:50:40;4.70;99.90
51793;DHT22;37850;53.178;6.376;2023-03-01T10:53:27;4.70;99.90
51793;DHT22;37850;53.178;6.376;2023-03-01T10:56:00;4.80;99.90
51793;DHT22;37850;53.178;6.376;2023-03-01T10:58:27;4.80;99.90
51793;DHT22;37850;53.178;6.376;2023-03-01T11:01:05;4.90;99.90
51793;DHT22;37850;53.178;6.376;2023-03-01T11:03:36;5.00;99.90
51793;DHT22;37850;53.178;6.376;2023-03-01T11:06:26;5.00;99.90
51793;DHT22;37850;53.178;6.376;2023-03-01T11:08:51;5.00;99.90
51793;DHT22;37850;53.178;6.376;2023-03-01T11:11:34;5.00;99.90
51793;DHT22;37850;53.178;6.376;2023-03-01T11:14:12;5.10;99.90
51793;DHT22;37850;53.178;6.376;2023-03-01T11:16:40;5.10;99.90
51793;DHT22;37850;53.178;6.376;2023-03-01T11:21:42;5.30;99.90
51793;DHT22;37850;53.178;6.376;2023-03-01T11:24:11;5.30;99.90
51793;DHT22;37850;53.178;6.376;2023-03-01T11:26:44;5.40;99.90
51793;DHT22;37850;53.178;6.376;2023-03-01T11:29:38;5.40;99.90
51793;DHT22;37850;53.178;6.376;2023-03-01T11:32:09;5.50;99.90
51793;DHT22;37850;53.178;6.376;2023-03-01T11:34:51;5.70;99.90
51793;DHT22;37850;53.178;6.376;2023-03-01T11:40:35;5.60;99.90
51793;DHT22;37850;53.178;6.376;2023-03-01T12:08:17;6.20;99.90
51793;DHT22;37850;53.178;6.376;2023-03-01T12:10:57;6.30;99.90
51793;DHT22;37850;53.178;6.376;2023-03-01T12:19:07;6.40;99.90
51793;DHT22;37850;53.178;6.376;2023-03-01T12:21:42;6.40;99.90
51793;DHT22;37850;53.178;6.376;2023-03-01T12:29:59;6.50;99.90
51793;DHT22;37850;53.178;6.376;2023-03-01T12:36:08;6.60;99.90
51793;DHT22;37850;53.178;6.376;2023-03-01T12:38:46;6.60;99.90
51793;DHT22;37850;53.178;6.376;2023-03-01T12:49:49;6.90;99.90
51793;DHT22;37850;53.178;6.376;2023-03-01T12:52:36;6.90;99.90
51793;DHT22;37850;53.178;6.376;2023-03-01T12:55:24;6.90;99.90
51793;DHT22;37850;53.178;6.376;2023-03-01T12:58:05;6.90;99.90
51793;DHT22;37850;53.178;6.376;2023-03-01T13:01:13;6.90;99.90
51793;DHT22;37850;53.178;6.376;2023-03-01T13:06:07;7.00;99.90
51793;DHT22;37850;53.178;6.376;2023-03-01T13:08:39;7.00;99.90
51793;DHT22;37850;53.178;6.376;2023-03-01T13:11:19;7.10;99.90
51793;DHT22;37850;53.178;6.376;2023-03-01T13:13:46;7.00;99.90
51793;DHT22;37850;53.178;6.376;2023-03-01T13:19:18;7.00;99.90
51793;DHT22;37850;53.178;6.376;2023-03-01T13:21:46;7.10;99.90
51793;DHT22;37850;53.178;6.376;2023-03-01T13:24:39;7.10;99.90
51793;DHT22;37850;53.178;6.376;2023-03-01T13:29:58;7.10;99.90
51793;DHT22;37850;53.178;6.376;2023-03-01T13:32:33;7.20;99.90
51793;DHT22;37850;53.178;6.376;2023-03-01T13:37:45;7.20;99.90
51793;DHT22;37850;53.178;6.376;2023-03-01T13:42:56;7.20;99.90
51793;DHT22;37850;53.178;6.376;2023-03-01T13:48:01;7.20;99.90
51793;DHT22;37850;53.178;6.376;2023-03-01T13:50:29;7.20;99.90
51793;DHT22;37850;53.178;6.376;2023-03-01T13:53:02;7.20;99.90
51793;DHT22;37850;53.178;6.376;2023-03-01T13:58:13;7.30;99.90
51793;DHT22;37850;53.178;6.376;2023-03-01T14:00:40;7.30;99.90
51793;DHT22;37850;53.178;6.376;2023-03-01T14:03:16;7.30;99.90
51793;DHT22;37850;53.178;6.376;2023-03-01T14:08:27;7.40;99.90
51793;DHT22;37850;53.178;6.376;2023-03-01T14:21:14;7.30;99.90
51793;DHT22;37850;53.178;6.376;2023-03-01T14:23:41;7.30;99.90
51793;DHT22;37850;53.178;6.376;2023-03-01T14:26:10;7.30;99.90
51793;DHT22;37850;53.178;6.376;2023-03-01T14:28:38;7.30;99.90
51793;DHT22;37850;53.178;6.376;2023-03-01T14:31:37;7.20;99.90
51793;DHT22;37850;53.178;6.376;2023-03-01T14:34:04;7.20;99.90
51793;DHT22;37850;53.178;6.376;2023-03-01T14:36:32;7.30;99.90
51793;DHT22;37850;53.178;6.376;2023-03-01T14:38:59;7.60;99.90
51793;DHT22;37850;53.178;6.376;2023-03-01T14:41:34;7.20;99.90
51793;DHT22;37850;53.178;6.376;2023-03-01T14:44:07;7.30;99.90
51793;DHT22;37850;53.178;6.376;2023-03-01T14:46:43;7.30;99.90
51793;DHT22;37850;53.178;6.376;2023-03-01T14:49:11;7.20;99.90
51793;DHT22;37850;53.178;6.376;2023-03-01T14:51:40;7.20;99.90
51793;DHT22;37850;53.178;6.376;2023-03-01T14:54:26;7.20;99.90
51793;DHT22;37850;53.178;6.376;2023-03-01T14:56:57;7.20;99.90
51793;DHT22;37850;53.178;6.376;2023-03-01T14:59:23;7.20;99.90
51793;DHT22;37850;53.178;6.376;2023-03-01T15:01:51;7.20;99.90
51793;DHT22;37850;53.178;6.376;2023-03-01T15:04:19;7.20;99.90
51793;DHT22;37850;53.178;6.376;2023-03-01T15:06:49;7.20;99.90
51793;DHT22;37850;53.178;6.376;2023-03-01T15:09:16;7.20;99.90
51793;DHT22;37850;53.178;6.376;2023-03-01T15:11:43;7.20;99.90
51793;DHT22;37850;53.178;6.376;2023-03-01T15:14:43;7.20;99.90
51793;DHT22;37850;53.178;6.376;2023-03-01T15:17:32;7.20;99.90
51793;DHT22;37850;53.178;6.376;2023-03-01T15:20:01;7.20;99.90
51793;DHT22;37850;53.178;6.376;2023-03-01T15:22:28;7.20;99.90
51793;DHT22;37850;53.178;6.376;2023-03-01T15:24:54;7.10;99.90
51793;DHT22;37850;53.178;6.376;2023-03-01T15:27:23;7.10;99.90
51793;DHT22;37850;53.178;6.376;2023-03-01T15:29:52;7.10;99.90
51793;DHT22;37850;53.178;6.376;2023-03-01T15:32:33;7.10;99.90
51793;DHT22;37850;53.178;6.376;2023-03-01T15:35:01;7.40;99.90
51793;DHT22;37850;53.178;6.376;2023-03-01T15:37:49;7.10;99.90
51793;DHT22;37850;53.178;6.376;2023-03-01T15:40:23;7.10;99.90
51793;DHT22;37850;53.178;6.376;2023-03-01T15:43:00;7.10;99.90
51793;DHT22;37850;53.178;6.376;2023-03-01T15:45:28;7.10;99.90
51793;DHT22;37850;53.178;6.376;2023-03-01T15:47:57;7.10;99.90
51793;DHT22;37850;53.178;6.376;2023-03-01T15:50:35;7.10;99.90
51793;DHT22;37850;53.178;6.376;2023-03-01T15:53:05;7.00;99.90
51793;DHT22;37850;53.178;6.376;2023-03-01T15:55:36;7.00;99.90
51793;DHT22;37850;53.178;6.376;2023-03-01T15:58:17;6.90;99.90
51793;DHT22;37850;53.178;6.376;2023-03-01T16:00:44;6.90;99.90
51793;DHT22;37850;53.178;6.376;2023-03-01T16:03:11;6.90;99.90
51793;DHT22;37850;53.178;6.376;2023-03-01T16:05:38;6.90;99.90
51793;DHT22;37850;53.178;6.376;2023-03-01T16:08:05;7.20;99.90
51793;DHT22;37850;53.178;6.376;2023-03-01T16:10:35;6.90;99.90
51793;DHT22;37850;53.178;6.376;2023-03-01T16:13:01;6.90;99.90
51793;DHT22;37850;53.178;6.376;2023-03-01T16:15:34;6.80;99.90
51793;DHT22;37850;53.178;6.376;2023-03-01T16:18:04;6.80;99.90
51793;DHT22;37850;53.178;6.376;2023-03-01T16:20:37;6.80;99.90
51793;DHT22;37850;53.178;6.376;2023-03-01T16:23:06;6.70;99.90
51793;DHT22;37850;53.178;6.376;2023-03-01T16:25:32;7.20;99.90
51793;DHT22;37850;53.178;6.376;2023-03-01T16:27:59;6.70;99.90
51793;DHT22;37850;53.178;6.376;2023-03-01T16:30:26;6.70;99.90
51793;DHT22;37850;53.178;6.376;2023-03-01T16:32:52;6.70;99.90
51793;DHT22;37850;53.178;6.376;2023-03-01T16:35:20;6.60;99.90
51793;DHT22;37850;53.178;6.376;2023-03-01T16:37:46;6.60;99.90
51793;DHT22;37850;53.178;6.376;2023-03-01T16:40:27;6.70;99.90
51793;DHT22;37850;53.178;6.376;2023-03-01T16:42:54;6.40;99.90
51793;DHT22;37850;53.178;6.376;2023-03-01T16:45:21;6.40;99.90
51793;DHT22;37850;53.178;6.376;2023-03-01T16:47:46;6.40;99.90
51793;DHT22;37850;53.178;6.376;2023-03-01T16:50:12;6.30;99.90
51793;DHT22;37850;53.178;6.376;2023-03-01T16:52:38;6.30;99.90
51793;DHT22;37850;53.178;6.376;2023-03-01T16:55:05;6.20;99.90
51793;DHT22;37850;53.178;6.376;2023-03-01T16:57:35;6.20;99.90
51793;DHT22;37850;53.178;6.376;2023-03-01T17:00:02;6.10;99.90
51793;DHT22;37850;53.178;6.376;2023-03-01T17:02:30;6.00;99.90
51793;DHT22;37850;53.178;6.376;2023-03-01T17:04:57;6.00;99.90
51793;DHT22;37850;53.178;6.376;2023-03-01T17:07:22;5.90;99.90
51793;DHT22;37850;53.178;6.376;2023-03-01T17:09:48;5.80;99.90
51793;DHT22;37850;53.178;6.376;2023-03-01T17:12:15;5.80;99.90
51793;DHT22;37850;53.178;6.376;2023-03-01T17:14:41;5.70;99.90
51793;DHT22;37850;53.178;6.376;2023-03-01T17:17:08;6.10;99.90
51793;DHT22;37850;53.178;6.376;2023-03-01T17:19:34;5.60;99.90
51793;DHT22;37850;53.178;6.376;2023-03-01T17:22:02;5.90;99.90
51793;DHT22;37850;53.178;6.376;2023-03-01T17:24:28;5.50;99.90
51793;DHT22;37850;53.178;6.376;2023-03-01T17:26:57;5.40;99.90
51793;DHT22;37850;53.178;6.376;2023-03-01T17:29:22;5.40;99.90
51793;DHT22;37850;53.178;6.376;2023-03-01T17:31:48;5.30;99.90
51793;DHT22;37850;53.178;6.376;2023-03-01T17:34:14;5.40;99.90